Terminal Aerodrome Forecast
Issued by NWS

Home | Current Version | Previous Version | Text Only | Print | Product List | Glossary On
Versions: 1 2 3 4 5 6 7 8 9 10 11 12 13 14 15 16
569
FTUS46 KMTR 101120
TAFSJC
TAF
KSJC 101120Z 1012/1112 13005KT P6SM SKC
     FM102000 31006KT P6SM FEW200
     FM110400 VRB03KT P6SM SCT200=

USA.gov is the U.S. government's official web portal to all federal, state and local government web resources and services.